createdAt,value
2018-05-12T00:00:02.677Z,11.9
2018-05-12T00:05:10.612Z,11.8
2018-05-12T00:10:02.352Z,11.8
2018-05-12T00:15:07.732Z,11.7
2018-05-12T00:20:05.675Z,11.7
2018-05-12T00:25:10.099Z,11.6
2018-05-12T00:30:04.903Z,11.6
2018-05-12T00:35:05.194Z,11.6
2018-05-12T00:40:15.556Z,11.5
2018-05-12T00:45:03.197Z,11.5
2018-05-12T00:50:02.458Z,11.4
2018-05-12T00:55:05.251Z,11.4
2018-05-12T01:00:02.524Z,11.4
2018-05-12T01:05:02.876Z,11.3
2018-05-12T01:10:02.698Z,11.2
2018-05-12T01:15:02.925Z,11.2
2018-05-12T01:20:28.592Z,11.1
2018-05-12T01:25:02.830Z,11.2
2018-05-12T01:30:05.586Z,11.1
2018-05-12T01:35:02.395Z,11
2018-05-12T01:40:05.615Z,11
2018-05-12T01:45:02.360Z,11
2018-05-12T01:50:02.625Z,11
2018-05-12T01:55:05.473Z,10.9
2018-05-12T02:00:02.798Z,10.9
2018-05-12T02:05:08.212Z,10.8
2018-05-12T02:10:02.879Z,10.8
2018-05-12T02:15:03.164Z,10.8
2018-05-12T02:20:05.103Z,10.8
2018-05-12T02:25:02.787Z,10.8
2018-05-12T02:30:25.907Z,10.7
2018-05-12T02:35:03.255Z,10.7
2018-05-12T02:40:02.974Z,10.8
2018-05-12T02:45:07.551Z,10.7
2018-05-12T02:50:18.051Z,10.7
2018-05-12T02:55:05.724Z,10.8
2018-05-12T03:00:02.994Z,10.8
2018-05-12T03:05:03.336Z,10.8
2018-05-12T03:10:08.145Z,10.9
2018-05-12T03:15:02.413Z,10.9
2018-05-12T03:20:15.404Z,11
2018-05-12T03:25:05.617Z,11
2018-05-12T03:30:12.983Z,11
2018-05-12T03:35:05.710Z,11
2018-05-12T03:40:04.981Z,11
2018-05-12T03:45:05.293Z,11
2018-05-12T03:50:05.093Z,11
2018-05-12T03:55:02.894Z,11
2018-05-12T04:00:08.222Z,11
2018-05-12T04:05:05.009Z,11
2018-05-12T04:10:07.783Z,10.9
2018-05-12T04:15:05.614Z,11
2018-05-12T04:20:02.982Z,10.9
2018-05-12T04:25:18.443Z,11
2018-05-12T04:30:05.255Z,11.1
2018-05-12T04:35:02.985Z,11.1
2018-05-12T04:40:05.151Z,11.2
2018-05-12T04:45:05.535Z,11.3
2018-05-12T04:50:05.285Z,11.4
2018-05-12T04:55:07.402Z,11.5
2018-05-12T05:00:12.854Z,11.7
2018-05-12T05:05:05.594Z,11.8
2018-05-12T05:10:05.116Z,12
2018-05-12T05:15:05.362Z,12.2
2018-05-12T05:20:07.755Z,12.4
2018-05-12T05:25:03.063Z,12.4
2018-05-12T05:30:09.979Z,12.9
2018-05-12T05:35:05.208Z,13.1
2018-05-12T05:40:05.492Z,13.4
2018-05-12T05:45:10.820Z,13.6
2018-05-12T05:50:05.653Z,14
2018-05-12T05:55:05.385Z,14.3
2018-05-12T06:00:05.223Z,14.5
2018-05-12T06:05:02.967Z,14.5
2018-05-12T06:10:10.284Z,14.8
2018-05-12T06:15:18.178Z,15
2018-05-12T06:20:02.563Z,15
2018-05-12T06:25:13.058Z,15.4
2018-05-12T06:30:03.317Z,15.4
2018-05-12T06:35:02.699Z,15.5
2018-05-12T06:40:04.984Z,15.8
2018-05-12T06:45:02.801Z,15.8
2018-05-12T06:50:05.680Z,16.1
2018-05-12T06:55:04.955Z,16.2
2018-05-12T07:00:03.255Z,16.2
2018-05-12T07:05:02.576Z,16.3
2018-05-12T07:10:25.200Z,16.6
2018-05-12T07:15:02.707Z,16.6
2018-05-12T07:20:03.107Z,16.7
2018-05-12T07:25:20.122Z,17
2018-05-12T07:30:07.486Z,17.1
2018-05-12T07:35:02.916Z,17
2018-05-12T07:40:05.184Z,17.3
2018-05-12T07:45:02.985Z,17.3
2018-05-12T07:50:04.980Z,17.4
2018-05-12T07:55:05.338Z,17.4
2018-05-12T08:00:05.213Z,17.5
2018-05-12T08:05:03.098Z,17.5
2018-05-12T08:10:02.898Z,17.7
2018-05-12T08:15:03.197Z,18
2018-05-12T08:20:02.590Z,18
2018-05-12T08:25:18.156Z,18.4
2018-05-12T08:30:02.417Z,18.4
2018-05-12T08:35:07.924Z,18.8
2018-05-12T08:40:02.680Z,18.8
2018-05-12T08:45:03.031Z,19.1
2018-05-12T08:50:02.409Z,19
2018-05-12T08:55:05.359Z,19.2
2018-05-12T09:00:07.715Z,19.5
2018-05-12T09:05:02.978Z,19.5
2018-05-12T09:10:10.293Z,19.7
2018-05-12T09:15:03.001Z,19.7
2018-05-12T09:20:02.434Z,19.6
2018-05-12T09:25:08.106Z,19.9
2018-05-12T09:30:10.084Z,20.1
2018-05-12T09:35:02.829Z,20.1
2018-05-12T09:40:02.594Z,20.2
2018-05-12T09:45:03.222Z,20.6
2018-05-12T09:50:05.044Z,20.7
2018-05-12T09:55:03.006Z,20.7
2018-05-12T10:00:03.363Z,21.1
2018-05-12T10:05:05.213Z,21.4
2018-05-12T10:10:13.109Z,21.3
2018-05-12T10:15:02.443Z,21.3
2018-05-12T10:20:03.068Z,21.3
2018-05-12T10:25:02.467Z,21.4
2018-05-12T10:30:13.174Z,21.9
2018-05-12T10:35:05.783Z,22
2018-05-12T10:40:07.624Z,21.7
2018-05-12T10:45:20.867Z,21.7
2018-05-12T10:50:03.502Z,21.7
2018-05-12T10:55:15.544Z,22
2018-05-12T11:00:07.946Z,22
2018-05-12T11:05:03.257Z,22
2018-05-12T11:10:03.118Z,22.1
2018-05-12T11:15:02.488Z,22.1
2018-05-12T11:20:03.254Z,22.2
2018-05-12T11:25:05.345Z,22.1
2018-05-12T11:30:08.053Z,22.3
2018-05-12T11:35:05.099Z,22.5
2018-05-12T11:40:03.281Z,22.4
2018-05-12T11:45:07.660Z,23
2018-05-12T11:50:07.492Z,23.1
2018-05-12T11:55:10.327Z,23.3
2018-05-12T12:00:13.070Z,23.7
2018-05-12T12:05:05.697Z,23.7
2018-05-12T12:10:05.002Z,23.6
2018-05-12T12:15:02.927Z,23.6
2018-05-12T12:20:10.131Z,23.2
2018-05-12T12:25:05.484Z,23.1
2018-05-12T12:30:02.800Z,23.1
2018-05-12T12:35:10.803Z,24.3
2018-05-12T12:40:05.200Z,24
2018-05-12T12:45:08.164Z,23.8
2018-05-12T12:50:05.207Z,24.2
2018-05-12T12:55:15.743Z,24.6
2018-05-12T13:00:10.871Z,24.8
2018-05-12T13:05:05.201Z,24.9
2018-05-12T13:10:03.019Z,24.8
2018-05-12T13:15:04.977Z,25.6
2018-05-12T13:20:05.081Z,26
2018-05-12T13:25:05.414Z,27.6
2018-05-12T13:30:02.813Z,27.5
2018-05-12T13:35:05.041Z,30.3
2018-05-12T13:40:10.565Z,29.2
2018-05-12T13:45:02.484Z,29.2
2018-05-12T13:50:02.985Z,31.1
2018-05-12T13:55:07.524Z,34
2018-05-12T14:00:02.913Z,34
2018-05-12T14:05:32.799Z,35.2
2018-05-12T14:10:05.328Z,35.9
2018-05-12T14:15:05.775Z,36.1
2018-05-12T14:20:08.375Z,36.4
2018-05-12T14:25:02.871Z,10.8
2018-05-12T14:30:02.503Z,36.5
2018-05-12T14:35:05.634Z,33.4
2018-05-12T14:40:17.862Z,33.6
2018-05-12T14:45:03.071Z,33.7
2018-05-12T14:50:05.076Z,32.6
2018-05-12T14:55:05.650Z,32.2
2018-05-12T15:00:03.124Z,32.2
2018-05-12T15:05:07.756Z,31.6
2018-05-12T15:10:05.387Z,31.7
2018-05-12T15:15:12.599Z,32
2018-05-12T15:20:08.176Z,31
2018-05-12T15:25:02.632Z,31
2018-05-12T15:30:03.098Z,30.8
2018-05-12T15:35:05.139Z,29.6
2018-05-12T15:40:03.163Z,29.5
2018-05-12T15:45:02.661Z,27.6
2018-05-12T15:50:03.146Z,27.2
2018-05-12T15:55:05.053Z,27.8
2018-05-12T16:00:02.416Z,27.8
2018-05-12T16:05:05.462Z,30.8
2018-05-12T16:10:02.346Z,30.8
2018-05-12T16:15:10.680Z,30.2
2018-05-12T16:20:13.360Z,29.4
2018-05-12T16:25:10.431Z,28.8
2018-05-12T16:30:12.979Z,28
2018-05-12T16:35:02.404Z,28
2018-05-12T16:40:08.411Z,27.5
2018-05-12T16:45:02.749Z,27.5
2018-05-12T16:50:03.150Z,27.2
2018-05-12T16:55:02.589Z,26.3
2018-05-12T17:00:05.599Z,26.7
2018-05-12T17:05:05.388Z,26.5
2018-05-12T17:10:11.127Z,26.3
2018-05-12T17:15:08.016Z,26.1
2018-05-12T17:20:20.240Z,25.7
2018-05-12T17:25:18.141Z,25.4
2018-05-12T17:30:02.541Z,25.4
2018-05-12T17:35:08.097Z,25.2
2018-05-12T17:40:10.761Z,24.8
2018-05-12T17:45:10.064Z,24.7
2018-05-12T17:50:07.507Z,24.5
2018-05-12T17:55:05.358Z,24.4
2018-05-12T18:00:05.270Z,24.3
2018-05-12T18:05:03.159Z,24.3
2018-05-12T18:10:10.595Z,23.9
2018-05-12T18:15:07.446Z,23.8
2018-05-12T18:20:05.439Z,23.6
2018-05-12T18:25:03.272Z,23.6
2018-05-12T18:30:02.536Z,23.5
2018-05-12T18:35:02.956Z,23.2
2018-05-12T18:40:05.291Z,22.7
2018-05-12T18:45:02.528Z,22.7
2018-05-12T18:50:18.129Z,22.3
2018-05-12T18:55:02.339Z,22.3
2018-05-12T19:00:02.738Z,22.1
2018-05-12T19:05:23.318Z,21.9
2018-05-12T19:10:05.882Z,21.7
2018-05-12T19:15:05.284Z,21.6
2018-05-12T19:20:10.292Z,21.4
2018-05-12T19:25:05.591Z,21.3
2018-05-12T19:30:10.698Z,21.2
2018-05-12T19:35:02.359Z,21.2
2018-05-12T19:40:03.172Z,21.1
2018-05-12T19:45:17.885Z,20.9
2018-05-12T19:50:03.187Z,20.9
2018-05-12T19:55:05.128Z,20.7
2018-05-12T20:00:04.959Z,20.7
2018-05-12T20:05:10.445Z,20.6
2018-05-12T20:10:05.765Z,20.5
2018-05-12T20:15:02.636Z,20.5
2018-05-12T20:20:08.164Z,20.2
2018-05-12T20:25:02.387Z,20.2
2018-05-12T20:30:02.750Z,20.2
2018-05-12T20:35:03.080Z,20.1
2018-05-12T20:40:05.372Z,19.9
2018-05-12T20:45:15.807Z,19.8
2018-05-12T20:50:03.164Z,19.8
2018-05-12T20:55:05.079Z,19.7
2018-05-12T21:00:04.959Z,19.5
2018-05-12T21:05:05.284Z,19.5
2018-05-12T21:10:05.639Z,19.5
2018-05-12T21:15:02.851Z,19.4
2018-05-12T21:20:02.426Z,19.4
2018-05-12T21:25:02.996Z,19.4
2018-05-12T21:30:10.929Z,19.4
2018-05-12T21:35:05.239Z,19.4
2018-05-12T21:40:05.580Z,19.3
2018-05-12T21:45:12.565Z,19.2
2018-05-12T21:50:05.464Z,19.2
2018-05-12T21:55:03.272Z,19.2
2018-05-12T22:00:05.201Z,19
2018-05-12T22:05:03.074Z,19.1
2018-05-12T22:10:10.458Z,18.9
2018-05-12T22:15:05.736Z,18.9
2018-05-12T22:20:03.124Z,18.9
2018-05-12T22:25:02.594Z,18.8
2018-05-12T22:30:02.905Z,18.8
2018-05-12T22:35:05.763Z,18.6
2018-05-12T22:40:02.534Z,18.6
2018-05-12T22:45:02.841Z,18.6
2018-05-12T22:50:05.823Z,18.4
2018-05-12T22:55:02.508Z,18.3
2018-05-12T23:00:02.885Z,18.3
2018-05-12T23:05:03.207Z,18.2
2018-05-12T23:10:05.659Z,18
2018-05-12T23:15:05.809Z,18
2018-05-12T23:20:05.682Z,17.9
2018-05-12T23:25:07.583Z,17.8
2018-05-12T23:30:02.900Z,17.8
2018-05-12T23:35:04.858Z,17.7
2018-05-12T23:40:05.067Z,17.6
2018-05-12T23:45:03.052Z,17.6
2018-05-12T23:50:05.013Z,17.5
2018-05-12T23:55:02.756Z,17.5
